createdAt,value
2023-02-25T00:01:28.955Z,31.67
2023-02-25T00:03:56.754Z,33.95
2023-02-25T00:06:24.585Z,39.22
2023-02-25T00:08:52.778Z,36.25
2023-02-25T00:11:20.522Z,35.75
2023-02-25T00:13:47.442Z,22.05
2023-02-25T00:16:15.091Z,33.22
2023-02-25T00:18:44.321Z,29.38
2023-02-25T00:21:17.575Z,42.63
2023-02-25T00:23:47.563Z,32.70
2023-02-25T00:26:17.336Z,35.33
2023-02-25T00:28:44.377Z,25.00
2023-02-25T00:31:14.304Z,29.42
2023-02-25T00:33:41.990Z,37.63
2023-02-25T00:36:21.201Z,23.20
2023-02-25T00:38:49.766Z,29.25
2023-02-25T00:41:19.083Z,33.15
2023-02-25T00:43:50.604Z,29.85
2023-02-25T00:46:17.815Z,35.45
2023-02-25T00:48:44.637Z,37.15
2023-02-25T00:51:14.459Z,36.28
2023-02-25T00:53:41.625Z,26.38
2023-02-25T00:56:11.548Z,31.40
2023-02-25T00:58:38.765Z,28.20
2023-02-25T01:01:15.971Z,38.22
2023-02-25T01:03:42.887Z,31.67
2023-02-25T01:06:09.978Z,42.15
2023-02-25T01:08:37.234Z,35.50
2023-02-25T01:11:27.629Z,41.28
2023-02-25T01:14:00.246Z,31.13
2023-02-25T01:16:29.526Z,26.83
2023-02-25T01:19:00.230Z,28.90
2023-02-25T01:21:30.029Z,31.10
2023-02-25T01:23:59.685Z,35.83
2023-02-25T01:26:27.994Z,32.00
2023-02-25T01:28:55.768Z,23.50
2023-02-25T01:31:29.041Z,30.00
2023-02-25T01:34:00.907Z,25.77
2023-02-25T01:36:28.372Z,38.05
2023-02-25T01:38:57.149Z,26.15
2023-02-25T01:41:25.380Z,29.00
2023-02-25T01:44:03.962Z,38.65
2023-02-25T01:46:30.895Z,23.70
2023-02-25T01:48:58.227Z,32.67
2023-02-25T01:51:27.655Z,43.65
2023-02-25T01:53:56.398Z,36.40
2023-02-25T01:56:25.862Z,34.10
2023-02-25T01:58:53.754Z,37.15
2023-02-25T02:01:23.182Z,33.00
2023-02-25T02:03:51.188Z,26.58
2023-02-25T02:06:33.505Z,31.67
2023-02-25T02:09:01.445Z,37.70
2023-02-25T02:11:29.736Z,28.88
2023-02-25T02:13:58.507Z,38.08
2023-02-25T02:17:09.613Z,31.10
2023-02-25T02:19:49.636Z,37.00
2023-02-25T02:22:37.588Z,34.20
2023-02-25T02:25:30.419Z,35.08
2023-02-25T02:28:22.028Z,30.42
2023-02-25T02:31:19.446Z,40.47
2023-02-25T02:34:16.511Z,27.83
2023-02-25T02:37:24.217Z,56.80
2023-02-25T02:40:15.132Z,32.78
2023-02-25T02:42:59.505Z,46.53
2023-02-25T02:45:34.523Z,30.50
2023-02-25T02:48:17.127Z,27.85
2023-02-25T02:50:47.714Z,45.88
2023-02-25T02:53:32.221Z,35.63
2023-02-25T02:56:02.815Z,41.03
2023-02-25T02:58:37.018Z,30.38
2023-02-25T03:01:20.696Z,35.47
2023-02-25T03:03:59.642Z,47.00
2023-02-25T03:06:32.953Z,46.33
2023-02-25T03:09:14.964Z,34.00
2023-02-25T03:11:42.015Z,38.42
2023-02-25T03:14:08.698Z,48.28
2023-02-25T03:16:43.206Z,36.40
2023-02-25T03:19:24.592Z,45.95
2023-02-25T03:22:05.534Z,38.60
2023-02-25T03:24:53.438Z,36.20
2023-02-25T03:27:28.161Z,37.58
2023-02-25T03:30:12.694Z,36.47
2023-02-25T03:32:47.938Z,37.85
2023-02-25T03:35:16.215Z,42.67
2023-02-25T03:37:49.488Z,37.03
2023-02-25T03:40:17.741Z,38.55
2023-02-25T03:42:52.947Z,35.00
2023-02-25T03:45:23.447Z,35.67
2023-02-25T03:47:51.038Z,37.75
2023-02-25T03:50:28.344Z,34.95
2023-02-25T03:52:59.063Z,36.38
2023-02-25T03:56:08.442Z,40.53
2023-02-25T03:58:38.206Z,37.47
2023-02-25T04:01:15.685Z,22.90
2023-02-25T04:03:43.483Z,37.88
2023-02-25T04:06:12.691Z,23.85
2023-02-25T04:08:40.159Z,20.05
2023-02-25T04:11:06.857Z,24.35
2023-02-25T04:13:33.594Z,26.90
2023-02-25T04:16:00.276Z,41.40
2023-02-25T04:18:27.645Z,31.90
2023-02-25T04:20:54.819Z,37.28
2023-02-25T04:23:21.532Z,33.97
2023-02-25T04:25:48.308Z,49.60
2023-02-25T04:28:15.114Z,33.63
2023-02-25T04:30:42.179Z,47.22
2023-02-25T04:33:16.124Z,37.72
2023-02-25T04:35:44.098Z,42.55
2023-02-25T04:38:12.029Z,31.95
2023-02-25T04:40:38.713Z,37.65
2023-02-25T04:43:05.554Z,39.75
2023-02-25T04:45:32.154Z,37.40
2023-02-25T04:47:58.775Z,40.97
2023-02-25T04:50:25.928Z,39.03
2023-02-25T04:52:52.605Z,38.80
2023-02-25T04:55:19.870Z,87.10
2023-02-25T04:57:46.542Z,39.85
2023-02-25T05:00:19.069Z,36.75
2023-02-25T05:02:48.920Z,51.92
2023-02-25T05:05:16.710Z,38.78
2023-02-25T05:07:44.202Z,33.80
2023-02-25T05:10:13.069Z,44.25
2023-02-25T05:12:39.842Z,48.45
2023-02-25T05:15:08.419Z,27.35
2023-02-25T05:17:35.945Z,28.35
2023-02-25T05:20:06.989Z,41.58
2023-02-25T05:22:33.706Z,36.88
2023-02-25T05:25:00.401Z,40.38
2023-02-25T05:27:27.049Z,42.95
2023-02-25T05:29:54.631Z,33.92
2023-02-25T05:32:21.987Z,31.33
2023-02-25T05:34:48.881Z,35.88
2023-02-25T05:37:15.591Z,29.08
2023-02-25T05:39:42.376Z,29.98
2023-02-25T05:42:08.990Z,22.52
2023-02-25T05:44:35.653Z,24.02
2023-02-25T05:47:02.343Z,23.92
2023-02-25T05:49:29.492Z,13.85
2023-02-25T05:51:56.136Z,16.25
2023-02-25T05:54:23.198Z,16.65
2023-02-25T05:56:53.400Z,25.05
2023-02-25T05:59:20.030Z,24.45
2023-02-25T06:01:46.735Z,25.45
2023-02-25T06:04:16.833Z,19.02
2023-02-25T06:06:50.075Z,19.25
2023-02-25T06:09:20.990Z,24.48
2023-02-25T06:11:48.898Z,17.38
2023-02-25T06:14:16.568Z,22.05
2023-02-25T06:16:43.446Z,37.45
2023-02-25T06:19:11.326Z,23.20
2023-02-25T06:21:38.510Z,24.67
2023-02-25T06:24:05.856Z,27.00
2023-02-25T06:26:32.644Z,24.35
2023-02-25T06:28:59.273Z,22.67
2023-02-25T06:31:25.867Z,24.50
2023-02-25T06:33:54.829Z,22.98
2023-02-25T06:36:22.069Z,20.90
2023-02-25T06:38:49.252Z,29.35
2023-02-25T06:41:19.039Z,26.73
2023-02-25T06:43:46.142Z,24.02
2023-02-25T06:46:14.787Z,16.90
2023-02-25T06:48:41.596Z,28.85
2023-02-25T06:51:09.491Z,22.73
2023-02-25T06:53:40.803Z,22.50
2023-02-25T06:56:08.267Z,21.45
2023-02-25T06:58:36.245Z,18.42
2023-02-25T07:01:10.717Z,27.05
2023-02-25T07:03:37.772Z,24.75
2023-02-25T07:06:04.715Z,24.42
2023-02-25T07:08:31.499Z,27.02
2023-02-25T07:11:30.038Z,30.38
2023-02-25T07:13:57.245Z,32.47
2023-02-25T07:16:24.200Z,25.80
2023-02-25T07:18:51.257Z,26.73
2023-02-25T07:21:18.847Z,30.10
2023-02-25T07:23:46.347Z,27.48
2023-02-25T07:26:14.566Z,28.13
2023-02-25T07:28:42.523Z,22.65
2023-02-25T07:31:17.190Z,26.00
2023-02-25T07:36:11.828Z,34.33
2023-02-25T07:38:38.829Z,28.02
2023-02-25T07:41:06.243Z,26.40
2023-02-25T07:43:33.228Z,27.58
2023-02-25T07:46:00.147Z,23.80
2023-02-25T07:48:27.235Z,25.60
2023-02-25T07:50:53.910Z,22.98
2023-02-25T07:53:22.379Z,22.80
2023-02-25T07:55:50.480Z,25.10
2023-02-25T07:58:17.119Z,24.98
2023-02-25T08:00:45.616Z,31.70
2023-02-25T08:03:12.558Z,25.30
2023-02-25T08:05:39.207Z,13.45
2023-02-25T08:08:06.064Z,12.75
2023-02-25T08:10:32.771Z,16.80
2023-02-25T08:12:59.756Z,7.38
2023-02-25T08:15:26.436Z,11.00
2023-02-25T08:17:55.683Z,38.83
2023-02-25T08:20:24.180Z,16.67
2023-02-25T08:22:50.877Z,13.48
2023-02-25T08:25:17.791Z,14.48
2023-02-25T08:27:44.533Z,16.25
2023-02-25T08:30:11.802Z,12.32
2023-02-25T08:32:38.928Z,13.57
2023-02-25T08:35:06.000Z,21.73
2023-02-25T08:37:33.385Z,14.95
2023-02-25T08:40:00.180Z,12.27
2023-02-25T08:42:27.180Z,13.90
2023-02-25T08:44:53.827Z,16.10
2023-02-25T08:47:20.489Z,9.98
2023-02-25T08:49:47.546Z,11.73
2023-02-25T08:52:14.560Z,15.00
2023-02-25T08:54:41.349Z,15.68
2023-02-25T08:57:08.227Z,13.25
2023-02-25T08:59:35.800Z,7.72
2023-02-25T09:02:05.329Z,10.95
2023-02-25T09:04:33.821Z,8.00
2023-02-25T09:07:01.461Z,9.90
2023-02-25T09:09:28.062Z,10.55
2023-02-25T09:11:55.544Z,10.38
2023-02-25T09:14:22.301Z,11.60
2023-02-25T09:16:49.691Z,16.33
2023-02-25T09:19:18.191Z,19.77
2023-02-25T09:21:47.953Z,15.18
2023-02-25T09:24:15.573Z,16.95
2023-02-25T09:26:42.210Z,15.25
2023-02-25T09:29:09.250Z,12.88
2023-02-25T09:31:37.443Z,15.68
2023-02-25T09:34:07.311Z,16.83
2023-02-25T09:36:34.080Z,20.55
2023-02-25T09:39:00.757Z,20.30
2023-02-25T09:41:35.499Z,18.10
2023-02-25T09:46:34.697Z,18.30
2023-02-25T09:49:28.882Z,18.48
2023-02-25T09:52:22.464Z,14.20
2023-02-25T09:54:55.614Z,8.75
2023-02-25T09:57:23.366Z,3.78
2023-02-25T09:59:53.368Z,6.25
2023-02-25T10:02:40.893Z,6.65
2023-02-25T10:05:17.959Z,4.40
2023-02-25T10:08:39.074Z,8.13
2023-02-25T10:11:10.049Z,7.93
2023-02-25T10:14:02.281Z,11.13
2023-02-25T10:16:52.166Z,8.70
2023-02-25T10:19:37.571Z,15.85
2023-02-25T10:22:22.562Z,15.02
2023-02-25T10:24:53.757Z,17.63
2023-02-25T10:27:24.603Z,21.65
2023-02-25T10:29:59.755Z,22.02
2023-02-25T10:32:31.211Z,19.15
2023-02-25T10:35:00.972Z,21.00
2023-02-25T10:37:35.930Z,14.85
2023-02-25T10:42:31.834Z,13.30
2023-02-25T10:45:08.075Z,15.63
2023-02-25T10:47:37.518Z,17.98
2023-02-25T10:50:18.521Z,23.48
2023-02-25T10:52:57.413Z,19.85
2023-02-25T10:55:52.633Z,23.95
2023-02-25T10:58:47.021Z,23.80
2023-02-25T11:01:20.892Z,20.17
2023-02-25T11:04:00.189Z,22.75
2023-02-25T11:06:35.191Z,24.25
2023-02-25T11:09:04.901Z,24.88
2023-02-25T11:11:37.070Z,22.58
2023-02-25T11:14:15.571Z,21.02
2023-02-25T11:16:44.836Z,18.45
2023-02-25T11:19:22.677Z,21.48
2023-02-25T11:21:50.067Z,21.60
2023-02-25T11:24:22.596Z,18.88
2023-02-25T11:26:51.930Z,19.08
2023-02-25T11:29:23.027Z,18.95
2023-02-25T11:31:58.691Z,19.88
2023-02-25T11:34:30.590Z,19.63
2023-02-25T11:37:18.915Z,18.55
2023-02-25T11:39:54.065Z,20.88
2023-02-25T11:42:27.063Z,26.15
2023-02-25T11:45:04.480Z,20.42
2023-02-25T11:47:33.511Z,27.67
2023-02-25T11:50:15.151Z,27.63
2023-02-25T11:53:01.843Z,28.00
2023-02-25T11:56:05.379Z,28.40
2023-02-25T11:58:57.768Z,25.35
2023-02-25T12:01:47.160Z,26.77
2023-02-25T12:04:53.587Z,26.90
2023-02-25T12:08:05.018Z,26.13
2023-02-25T12:11:02.624Z,26.02
2023-02-25T12:13:51.341Z,25.55
2023-02-25T12:16:44.492Z,31.90
2023-02-25T12:19:23.629Z,26.48
2023-02-25T12:22:26.815Z,34.88
2023-02-25T12:24:53.391Z,26.73
2023-02-25T12:27:34.031Z,31.25
2023-02-25T12:30:33.267Z,29.40
2023-02-25T12:33:12.080Z,29.63
2023-02-25T12:36:03.588Z,28.23
2023-02-25T12:39:02.844Z,28.75
2023-02-25T12:41:47.636Z,29.10
2023-02-25T12:44:39.770Z,26.50
2023-02-25T12:47:45.078Z,25.83
2023-02-25T12:50:23.665Z,26.92
2023-02-25T12:53:02.331Z,26.08
2023-02-25T12:55:40.920Z,29.23
2023-02-25T12:58:33.491Z,35.63
2023-02-25T13:01:13.100Z,41.55
2023-02-25T13:03:57.914Z,43.00
2023-02-25T13:06:45.665Z,43.85
2023-02-25T13:09:46.051Z,36.85
2023-02-25T13:12:28.575Z,27.75
2023-02-25T13:15:20.502Z,27.23
2023-02-25T13:18:06.894Z,27.35
2023-02-25T13:21:02.452Z,27.52
2023-02-25T13:26:51.437Z,29.90
2023-02-25T13:30:13.397Z,29.55
2023-02-25T13:33:11.170Z,29.25
2023-02-25T13:36:18.742Z,30.58
2023-02-25T13:39:10.227Z,29.42
2023-02-25T13:41:46.272Z,30.60
2023-02-25T13:44:46.913Z,29.83
2023-02-25T13:47:28.693Z,31.13
2023-02-25T13:50:21.585Z,32.08
2023-02-25T13:53:20.068Z,29.45
2023-02-25T13:56:07.216Z,29.77
2023-02-25T13:59:02.996Z,28.60
2023-02-25T14:02:15.677Z,31.15
2023-02-25T14:05:11.169Z,29.73
2023-02-25T14:08:15.467Z,30.52
2023-02-25T14:10:54.851Z,34.53
2023-02-25T14:13:41.868Z,35.17
2023-02-25T14:16:44.710Z,36.25
2023-02-25T14:19:55.262Z,33.53
2023-02-25T14:22:39.860Z,35.35
2023-02-25T14:25:22.638Z,35.58
2023-02-25T14:28:26.845Z,35.00
2023-02-25T14:30:59.543Z,32.65
2023-02-25T14:33:41.951Z,34.47
2023-02-25T14:36:43.338Z,34.40
2023-02-25T14:39:32.521Z,32.92
2023-02-25T14:42:14.921Z,37.97
2023-02-25T14:44:50.399Z,37.92
2023-02-25T14:47:25.306Z,37.45
2023-02-25T14:49:54.919Z,39.95
2023-02-25T14:52:36.636Z,39.85
2023-02-25T14:55:24.228Z,39.15
2023-02-25T14:58:18.830Z,37.45
2023-02-25T15:00:51.515Z,36.70
2023-02-25T15:03:35.842Z,33.83
2023-02-25T15:06:21.558Z,33.77
2023-02-25T15:09:37.040Z,34.70
2023-02-25T15:12:06.517Z,34.03
2023-02-25T15:14:54.385Z,34.08
2023-02-25T15:17:21.238Z,33.70
2023-02-25T15:19:56.674Z,33.08
2023-02-25T15:22:29.349Z,33.15
2023-02-25T15:25:20.901Z,32.80
2023-02-25T15:27:56.746Z,31.20
2023-02-25T15:30:26.380Z,33.88
2023-02-25T15:33:01.994Z,31.60
2023-02-25T15:35:34.513Z,27.70
2023-02-25T15:38:02.110Z,27.48
2023-02-25T15:40:34.748Z,29.15
2023-02-25T15:43:10.528Z,27.42
2023-02-25T15:45:38.828Z,27.45
2023-02-25T15:48:08.206Z,26.30
2023-02-25T15:50:43.898Z,25.75
2023-02-25T15:53:25.480Z,27.15
2023-02-25T15:56:04.334Z,31.42
2023-02-25T15:58:31.050Z,30.52
2023-02-25T16:01:36.643Z,30.88
2023-02-25T16:04:26.317Z,32.20
2023-02-25T16:06:54.225Z,30.83
2023-02-25T16:09:21.404Z,33.72
2023-02-25T16:11:49.418Z,30.65
2023-02-25T16:14:30.090Z,33.75
2023-02-25T16:16:59.211Z,31.50
2023-02-25T16:19:30.616Z,34.65
2023-02-25T16:22:19.128Z,32.13
2023-02-25T16:24:52.191Z,28.10
2023-02-25T16:27:33.407Z,31.25
2023-02-25T16:30:41.330Z,31.25
2023-02-25T16:33:21.291Z,29.15
2023-02-25T16:35:55.379Z,30.42
2023-02-25T16:38:47.747Z,29.60
2023-02-25T16:41:15.268Z,30.17
2023-02-25T16:43:43.468Z,31.40
2023-02-25T16:46:20.192Z,30.60
2023-02-25T16:48:51.341Z,20.30
2023-02-25T16:51:32.915Z,19.55
2023-02-25T16:54:03.737Z,19.95
2023-02-25T16:56:32.458Z,19.80
2023-02-25T16:59:14.019Z,21.45
2023-02-25T17:01:57.357Z,19.77
2023-02-25T17:04:33.539Z,20.65
2023-02-25T17:07:07.843Z,20.15
2023-02-25T17:09:35.406Z,21.25
2023-02-25T17:12:04.135Z,20.52
2023-02-25T17:14:31.630Z,20.80
2023-02-25T17:16:58.987Z,20.80
2023-02-25T17:19:26.698Z,22.48
2023-02-25T17:21:58.554Z,21.13
2023-02-25T17:24:30.912Z,21.13
2023-02-25T17:26:57.855Z,20.25
2023-02-25T17:29:36.487Z,29.38
2023-02-25T17:32:28.102Z,19.90
2023-02-25T17:34:58.985Z,20.33
2023-02-25T17:37:29.058Z,20.60
2023-02-25T17:39:56.619Z,28.05
2023-02-25T17:42:32.145Z,20.65
2023-02-25T17:45:00.745Z,21.00
2023-02-25T17:47:31.251Z,20.25
2023-02-25T17:50:01.450Z,20.90
2023-02-25T17:52:32.302Z,20.23
2023-02-25T17:55:02.030Z,21.40
2023-02-25T17:57:31.121Z,20.13
2023-02-25T18:00:21.148Z,20.27
2023-02-25T18:02:47.997Z,21.83
2023-02-25T18:05:21.348Z,20.85
2023-02-25T18:08:06.640Z,21.35
2023-02-25T18:10:33.251Z,22.88
2023-02-25T18:13:01.816Z,21.13
2023-02-25T18:15:33.632Z,23.55
2023-02-25T18:18:07.183Z,22.00
2023-02-25T18:20:35.398Z,21.45
2023-02-25T18:23:03.055Z,21.38
2023-02-25T18:25:37.403Z,21.20
2023-02-25T18:28:06.697Z,22.10
2023-02-25T18:30:33.751Z,22.02
2023-02-25T18:33:00.518Z,22.17
2023-02-25T18:35:29.277Z,22.45
2023-02-25T18:37:57.587Z,21.00
2023-02-25T18:40:36.673Z,20.58
2023-02-25T18:43:04.330Z,20.75
2023-02-25T18:45:33.093Z,20.58
2023-02-25T18:48:00.754Z,20.38
2023-02-25T18:50:31.829Z,20.30
2023-02-25T18:52:58.805Z,21.52
2023-02-25T18:55:28.927Z,20.20
2023-02-25T18:57:55.788Z,21.98
2023-02-25T19:00:24.395Z,20.48
2023-02-25T19:02:57.768Z,20.23
2023-02-25T19:05:25.095Z,21.25
2023-02-25T19:07:52.470Z,20.83
2023-02-25T19:10:20.565Z,20.52
2023-02-25T19:12:49.523Z,21.95
2023-02-25T19:15:19.886Z,20.67
2023-02-25T19:17:47.485Z,20.02
2023-02-25T19:20:16.413Z,19.85
2023-02-25T19:22:45.012Z,19.95
2023-02-25T19:25:26.868Z,18.98
2023-02-25T19:27:55.508Z,20.90
2023-02-25T19:30:25.697Z,20.10
2023-02-25T19:32:53.506Z,19.80
2023-02-25T19:35:20.155Z,22.05
2023-02-25T19:37:47.158Z,20.23
2023-02-25T19:40:15.769Z,20.35
2023-02-25T19:42:44.417Z,23.08
2023-02-25T19:45:14.679Z,25.08
2023-02-25T19:47:41.479Z,20.70
2023-02-25T19:50:09.547Z,19.98
2023-02-25T19:52:36.143Z,20.52
2023-02-25T19:55:03.517Z,20.77
2023-02-25T19:57:30.547Z,19.30
2023-02-25T19:59:57.237Z,19.67
2023-02-25T20:02:24.419Z,20.98
2023-02-25T20:04:51.050Z,20.27
2023-02-25T20:07:17.740Z,19.20
2023-02-25T20:09:44.359Z,20.15
2023-02-25T20:12:12.017Z,21.02
2023-02-25T20:14:38.669Z,18.60
2023-02-25T20:17:05.357Z,18.60
2023-02-25T20:19:32.839Z,18.73
2023-02-25T20:22:01.158Z,19.45
2023-02-25T20:24:28.551Z,20.08
2023-02-25T20:26:56.035Z,19.20
2023-02-25T20:29:23.366Z,19.27
2023-02-25T20:31:50.177Z,18.75
2023-02-25T20:34:20.633Z,20.08
2023-02-25T20:37:02.286Z,20.42
2023-02-25T20:39:37.626Z,18.92
2023-02-25T20:42:06.072Z,18.23
2023-02-25T20:44:33.026Z,19.30
2023-02-25T20:46:59.757Z,19.30
2023-02-25T20:49:27.089Z,19.70
2023-02-25T20:51:54.113Z,19.85
2023-02-25T20:54:21.023Z,19.00
2023-02-25T20:56:49.378Z,19.85
2023-02-25T20:59:17.367Z,19.40
2023-02-25T21:01:45.168Z,18.80
2023-02-25T21:04:12.226Z,19.67
2023-02-25T21:06:39.332Z,19.65
2023-02-25T21:09:07.334Z,18.85
2023-02-25T21:11:34.262Z,20.17
2023-02-25T21:14:00.954Z,19.10
2023-02-25T21:16:27.906Z,19.52
2023-02-25T21:18:54.765Z,18.52
2023-02-25T21:21:21.909Z,18.58
2023-02-25T21:23:51.644Z,19.10
2023-02-25T21:26:18.612Z,18.90
2023-02-25T21:28:46.557Z,18.55
2023-02-25T21:31:15.194Z,18.17
2023-02-25T21:33:42.566Z,18.35
2023-02-25T21:36:10.789Z,17.65
2023-02-25T21:38:38.554Z,17.05
2023-02-25T21:41:11.138Z,18.17
2023-02-25T21:43:38.639Z,16.95
2023-02-25T21:46:07.751Z,17.42
2023-02-25T21:48:34.512Z,16.42
2023-02-25T21:51:01.162Z,16.02
2023-02-25T21:53:28.786Z,15.57
2023-02-25T21:55:55.855Z,16.30
2023-02-25T21:58:23.199Z,16.10
2023-02-25T22:00:50.701Z,16.40
2023-02-25T22:03:17.615Z,17.17
2023-02-25T22:05:46.415Z,16.88
2023-02-25T22:08:14.040Z,16.50
2023-02-25T22:10:40.897Z,16.20
2023-02-25T22:13:08.378Z,16.40
2023-02-25T22:15:35.353Z,16.45
2023-02-25T22:18:02.308Z,16.73
2023-02-25T22:20:28.988Z,16.35
2023-02-25T22:22:58.002Z,15.32
2023-02-25T22:25:24.779Z,16.00
2023-02-25T22:27:51.985Z,14.95
2023-02-25T22:30:18.854Z,15.55
2023-02-25T22:32:45.636Z,16.77
2023-02-25T22:35:12.390Z,15.20
2023-02-25T22:37:39.052Z,15.70
2023-02-25T22:40:06.324Z,15.00
2023-02-25T22:42:33.105Z,31.60
2023-02-25T22:44:59.724Z,15.43
2023-02-25T22:47:26.359Z,14.90
2023-02-25T22:49:53.011Z,15.27
2023-02-25T22:52:19.685Z,15.50
2023-02-25T22:54:46.576Z,15.45
2023-02-25T22:57:13.480Z,15.55
2023-02-25T22:59:40.115Z,15.07
2023-02-25T23:02:06.737Z,15.10
2023-02-25T23:04:33.463Z,15.73
2023-02-25T23:07:00.963Z,15.55
2023-02-25T23:09:27.752Z,16.88
2023-02-25T23:11:55.069Z,17.30
2023-02-25T23:14:21.658Z,16.50
2023-02-25T23:16:48.467Z,16.23
2023-02-25T23:19:17.910Z,15.98
2023-02-25T23:21:44.992Z,16.02
2023-02-25T23:24:19.377Z,16.20
2023-02-25T23:26:50.081Z,16.10
2023-02-25T23:29:16.732Z,17.77
2023-02-25T23:31:46.738Z,16.08
2023-02-25T23:34:17.897Z,16.05
2023-02-25T23:36:45.435Z,15.77
2023-02-25T23:39:14.449Z,16.48
2023-02-25T23:41:41.348Z,15.27
2023-02-25T23:44:09.058Z,14.70
2023-02-25T23:46:36.307Z,14.60
2023-02-25T23:49:05.843Z,15.00
2023-02-25T23:51:33.657Z,14.48
2023-02-25T23:54:02.716Z,13.80
2023-02-25T23:56:31.770Z,14.45
2023-02-25T23:58:58.747Z,14.95
